sensor_id;sensor_type;location;lat;lon;timestamp;pressure;altitude;pressure_sealevel;temperature;humidity
54270;BME280;40181;51.560;13.000;2023-09-07T00:02:10;101382.31;;;20.72;65.53
54270;BME280;40181;51.560;13.000;2023-09-07T00:04:40;101387.59;;;20.77;65.54
54270;BME280;40181;51.560;13.000;2023-09-07T00:07:09;101385.66;;;20.89;65.05
54270;BME280;40181;51.560;13.000;2023-09-07T00:09:41;101378.66;;;20.78;65.25
54270;BME280;40181;51.560;13.000;2023-09-07T00:12:10;101389.47;;;20.70;65.00
54270;BME280;40181;51.560;13.000;2023-09-07T00:14:40;101382.47;;;20.63;65.75
54270;BME280;40181;51.560;13.000;2023-09-07T00:17:10;101385.06;;;20.68;65.12
54270;BME280;40181;51.560;13.000;2023-09-07T00:19:40;101387.75;;;20.68;65.61
54270;BME280;40181;51.560;13.000;2023-09-07T00:22:14;101375.72;;;20.37;66.13
54270;BME280;40181;51.560;13.000;2023-09-07T00:24:44;101387.31;;;20.38;66.58
54270;BME280;40181;51.560;13.000;2023-09-07T00:27:13;101389.84;;;20.47;66.53
54270;BME280;40181;51.560;13.000;2023-09-07T00:29:43;101384.66;;;20.35;66.79
54270;BME280;40181;51.560;13.000;2023-09-07T00:32:13;101380.97;;;20.45;66.68
54270;BME280;40181;51.560;13.000;2023-09-07T00:34:42;101388.06;;;20.46;66.43
54270;BME280;40181;51.560;13.000;2023-09-07T00:37:14;101378.66;;;20.20;67.21
54270;BME280;40181;51.560;13.000;2023-09-07T00:39:44;101375.78;;;20.32;67.48
54270;BME280;40181;51.560;13.000;2023-09-07T00:42:13;101371.50;;;20.22;67.18
54270;BME280;40181;51.560;13.000;2023-09-07T00:44:42;101368.06;;;20.14;68.43
54270;BME280;40181;51.560;13.000;2023-09-07T00:47:13;101378.66;;;20.20;68.63
54270;BME280;40181;51.560;13.000;2023-09-07T00:49:43;101380.53;;;20.13;68.93
54270;BME280;40181;51.560;13.000;2023-09-07T00:52:15;101382.34;;;20.10;69.08
54270;BME280;40181;51.560;13.000;2023-09-07T00:54:45;101379.69;;;20.07;69.08
54270;BME280;40181;51.560;13.000;2023-09-07T00:57:14;101385.06;;;20.05;69.75
54270;BME280;40181;51.560;13.000;2023-09-07T00:59:44;101384.03;;;20.15;69.07
54270;BME280;40181;51.560;13.000;2023-09-07T01:02:13;101378.84;;;20.03;70.06
54270;BME280;40181;51.560;13.000;2023-09-07T01:04:43;101376.31;;;19.94;70.24
54270;BME280;40181;51.560;13.000;2023-09-07T01:07:18;101370.97;;;19.94;70.35
54270;BME280;40181;51.560;13.000;2023-09-07T01:09:54;101373.88;;;19.72;71.72
54270;BME280;40181;51.560;13.000;2023-09-07T01:12:26;101375.63;;;19.74;71.98
54270;BME280;40181;51.560;13.000;2023-09-07T01:14:55;101375.75;;;19.65;72.29
54270;BME280;40181;51.560;13.000;2023-09-07T01:17:25;101373.03;;;19.70;72.32
54270;BME280;40181;51.560;13.000;2023-09-07T01:19:57;101366.91;;;19.63;72.90
54270;BME280;40181;51.560;13.000;2023-09-07T01:22:34;101364.25;;;19.60;72.60
54270;BME280;40181;51.560;13.000;2023-09-07T01:25:05;101367.84;;;19.56;72.34
54270;BME280;40181;51.560;13.000;2023-09-07T01:27:35;101366.25;;;19.38;73.86
54270;BME280;40181;51.560;13.000;2023-09-07T01:30:06;101374.16;;;19.48;72.92
54270;BME280;40181;51.560;13.000;2023-09-07T01:32:37;101365.31;;;19.45;73.06
54270;BME280;40181;51.560;13.000;2023-09-07T01:35:10;101366.25;;;19.41;73.34
54270;BME280;40181;51.560;13.000;2023-09-07T01:37:42;101366.09;;;19.53;72.78
54270;BME280;40181;51.560;13.000;2023-09-07T01:40:12;101360.03;;;19.39;73.73
54270;BME280;40181;51.560;13.000;2023-09-07T01:42:42;101363.53;;;19.45;73.72
54270;BME280;40181;51.560;13.000;2023-09-07T01:45:11;101363.75;;;19.22;73.43
54270;BME280;40181;51.560;13.000;2023-09-07T01:47:40;101364.63;;;19.24;74.04
54270;BME280;40181;51.560;13.000;2023-09-07T01:50:09;101359.31;;;19.24;74.49
54270;BME280;40181;51.560;13.000;2023-09-07T01:52:42;101368.22;;;19.20;74.25
54270;BME280;40181;51.560;13.000;2023-09-07T01:55:13;101369.13;;;19.17;74.44
54270;BME280;40181;51.560;13.000;2023-09-07T01:57:43;101360.97;;;19.33;73.58
54270;BME280;40181;51.560;13.000;2023-09-07T02:00:13;101366.41;;;19.25;74.18
54270;BME280;40181;51.560;13.000;2023-09-07T02:02:42;101380.66;;;19.18;74.54
54270;BME280;40181;51.560;13.000;2023-09-07T02:05:11;101378.84;;;19.20;74.79
54270;BME280;40181;51.560;13.000;2023-09-07T02:07:44;101370.09;;;19.07;74.81
54270;BME280;40181;51.560;13.000;2023-09-07T02:10:15;101378.13;;;19.04;75.60
54270;BME280;40181;51.560;13.000;2023-09-07T02:12:45;101371.00;;;19.07;75.49
54270;BME280;40181;51.560;13.000;2023-09-07T02:15:14;101377.31;;;18.91;76.77
54270;BME280;40181;51.560;13.000;2023-09-07T02:17:44;101379.03;;;18.98;76.34
54270;BME280;40181;51.560;13.000;2023-09-07T02:20:13;101373.00;;;18.74;77.18
54270;BME280;40181;51.560;13.000;2023-09-07T02:22:46;101379.22;;;18.72;77.62
54270;BME280;40181;51.560;13.000;2023-09-07T02:25:16;101384.53;;;18.72;77.42
54270;BME280;40181;51.560;13.000;2023-09-07T02:27:45;101379.94;;;18.96;75.82
54270;BME280;40181;51.560;13.000;2023-09-07T02:30:15;101380.97;;;18.74;77.16
54270;BME280;40181;51.560;13.000;2023-09-07T02:32:45;101384.66;;;18.61;78.44
54270;BME280;40181;51.560;13.000;2023-09-07T02:35:14;101381.06;;;18.63;78.02
54270;BME280;40181;51.560;13.000;2023-09-07T02:37:46;101379.31;;;18.59;78.13
54270;BME280;40181;51.560;13.000;2023-09-07T02:40:16;101381.94;;;18.62;77.65
54270;BME280;40181;51.560;13.000;2023-09-07T02:42:45;101382.00;;;18.56;78.40
54270;BME280;40181;51.560;13.000;2023-09-07T02:45:14;101379.28;;;18.62;77.81
54270;BME280;40181;51.560;13.000;2023-09-07T02:47:43;101393.63;;;18.43;79.14
54270;BME280;40181;51.560;13.000;2023-09-07T02:50:16;101390.09;;;18.42;79.06
54270;BME280;40181;51.560;13.000;2023-09-07T02:52:49;101392.81;;;18.27;79.60
54270;BME280;40181;51.560;13.000;2023-09-07T02:55:18;101379.47;;;18.34;79.56
54270;BME280;40181;51.560;13.000;2023-09-07T02:57:47;101381.22;;;18.35;79.85
54270;BME280;40181;51.560;13.000;2023-09-07T03:00:17;101390.97;;;18.38;79.24
54270;BME280;40181;51.560;13.000;2023-09-07T03:02:47;101379.50;;;18.30;78.75
54270;BME280;40181;51.560;13.000;2023-09-07T03:05:17;101388.31;;;18.38;79.28
54270;BME280;40181;51.560;13.000;2023-09-07T03:07:49;101380.38;;;18.33;78.94
54270;BME280;40181;51.560;13.000;2023-09-07T03:10:18;101374.19;;;18.30;79.38
54270;BME280;40181;51.560;13.000;2023-09-07T03:12:48;101381.25;;;18.32;78.59
54270;BME280;40181;51.560;13.000;2023-09-07T03:15:18;101384.88;;;18.22;79.21
54270;BME280;40181;51.560;13.000;2023-09-07T03:17:47;101389.22;;;18.35;79.02
54270;BME280;40181;51.560;13.000;2023-09-07T03:20:16;101383.09;;;18.25;79.76
54270;BME280;40181;51.560;13.000;2023-09-07T03:22:49;101377.75;;;18.22;79.08
54270;BME280;40181;51.560;13.000;2023-09-07T03:25:18;101381.25;;;18.38;78.90
54270;BME280;40181;51.560;13.000;2023-09-07T03:27:48;101391.03;;;18.27;79.20
54270;BME280;40181;51.560;13.000;2023-09-07T03:30:17;101382.25;;;18.17;79.78
54270;BME280;40181;51.560;13.000;2023-09-07T03:32:47;101380.41;;;18.29;79.12
54270;BME280;40181;51.560;13.000;2023-09-07T03:35:16;101372.50;;;18.16;79.75
54270;BME280;40181;51.560;13.000;2023-09-07T03:37:45;101388.38;;;18.30;79.02
54270;BME280;40181;51.560;13.000;2023-09-07T03:40:17;101391.97;;;18.17;79.36
54270;BME280;40181;51.560;13.000;2023-09-07T03:42:47;101390.22;;;18.19;78.70
54270;BME280;40181;51.560;13.000;2023-09-07T03:45:17;101398.19;;;18.16;79.01
54270;BME280;40181;51.560;13.000;2023-09-07T03:47:46;101391.09;;;18.21;79.01
54270;BME280;40181;51.560;13.000;2023-09-07T03:50:16;101388.41;;;18.24;78.49
54270;BME280;40181;51.560;13.000;2023-09-07T03:52:45;101394.59;;;18.26;78.18
54270;BME280;40181;51.560;13.000;2023-09-07T03:55:17;101396.38;;;18.24;78.07
54270;BME280;40181;51.560;13.000;2023-09-07T03:57:46;101392.88;;;18.17;78.33
54270;BME280;40181;51.560;13.000;2023-09-07T04:00:16;101402.69;;;18.06;79.05
54270;BME280;40181;51.560;13.000;2023-09-07T04:02:46;101404.44;;;18.04;78.53
54270;BME280;40181;51.560;13.000;2023-09-07T04:05:15;101394.63;;;18.18;78.18
54270;BME280;40181;51.560;13.000;2023-09-07T04:07:45;101405.31;;;17.98;79.46
54270;BME280;40181;51.560;13.000;2023-09-07T04:10:18;101401.78;;;18.02;79.60
54270;BME280;40181;51.560;13.000;2023-09-07T04:12:48;101395.56;;;18.11;78.34
54270;BME280;40181;51.560;13.000;2023-09-07T04:15:17;101399.09;;;18.15;79.08
54270;BME280;40181;51.560;13.000;2023-09-07T04:17:46;101414.13;;;18.14;78.26
54270;BME280;40181;51.560;13.000;2023-09-07T04:20:16;101408.06;;;17.72;80.29
54270;BME280;40181;51.560;13.000;2023-09-07T04:22:45;101405.34;;;17.87;79.82
54270;BME280;40181;51.560;13.000;2023-09-07T04:25:17;101405.41;;;17.70;80.54
54270;BME280;40181;51.560;13.000;2023-09-07T04:27:46;101406.31;;;17.69;80.99
54270;BME280;40181;51.560;13.000;2023-09-07T04:30:16;101410.72;;;17.75;80.77
54270;BME280;40181;51.560;13.000;2023-09-07T04:32:45;101412.50;;;17.74;80.18
54270;BME280;40181;51.560;13.000;2023-09-07T04:35:15;101415.19;;;17.59;81.71
54270;BME280;40181;51.560;13.000;2023-09-07T04:37:45;101409.03;;;17.38;82.15
54270;BME280;40181;51.560;13.000;2023-09-07T04:40:17;101416.94;;;17.58;80.87
54270;BME280;40181;51.560;13.000;2023-09-07T04:42:47;101416.09;;;17.48;81.85
54270;BME280;40181;51.560;13.000;2023-09-07T04:45:16;101417.84;;;17.51;81.46
54270;BME280;40181;51.560;13.000;2023-09-07T04:47:46;101413.47;;;17.39;82.00
54270;BME280;40181;51.560;13.000;2023-09-07T04:50:15;101416.97;;;17.46;82.14
54270;BME280;40181;51.560;13.000;2023-09-07T04:52:45;101421.38;;;17.61;81.95
54270;BME280;40181;51.560;13.000;2023-09-07T04:55:17;101415.19;;;17.41;82.25
54270;BME280;40181;51.560;13.000;2023-09-07T04:57:46;101423.16;;;17.48;82.17
54270;BME280;40181;51.560;13.000;2023-09-07T05:00:16;101415.22;;;17.38;82.78
54270;BME280;40181;51.560;13.000;2023-09-07T05:02:46;101416.97;;;17.44;82.81
54270;BME280;40181;51.560;13.000;2023-09-07T05:05:16;101417.84;;;17.41;82.84
54270;BME280;40181;51.560;13.000;2023-09-07T05:07:45;101423.16;;;17.55;82.33
54270;BME280;40181;51.560;13.000;2023-09-07T05:10:17;101417.84;;;17.48;82.84
54270;BME280;40181;51.560;13.000;2023-09-07T05:12:46;101419.63;;;17.53;82.13
54270;BME280;40181;51.560;13.000;2023-09-07T05:15:16;101420.50;;;17.51;82.72
54270;BME280;40181;51.560;13.000;2023-09-07T05:17:45;101424.06;;;17.44;83.08
54270;BME280;40181;51.560;13.000;2023-09-07T05:20:15;101430.25;;;17.44;83.02
54270;BME280;40181;51.560;13.000;2023-09-07T05:22:44;101433.75;;;17.60;82.68
54270;BME280;40181;51.560;13.000;2023-09-07T05:25:13;101429.38;;;17.44;83.45
54270;BME280;40181;51.560;13.000;2023-09-07T05:27:46;101432.91;;;17.53;83.78
54270;BME280;40181;51.560;13.000;2023-09-07T05:30:15;101437.31;;;17.62;82.96
54270;BME280;40181;51.560;13.000;2023-09-07T05:32:45;101436.47;;;17.40;83.45
54270;BME280;40181;51.560;13.000;2023-09-07T05:35:14;101428.47;;;17.51;83.67
54270;BME280;40181;51.560;13.000;2023-09-07T05:37:44;101433.78;;;17.46;83.42
54270;BME280;40181;51.560;13.000;2023-09-07T05:40:17;101439.09;;;17.48;83.81
54270;BME280;40181;51.560;13.000;2023-09-07T05:42:46;101435.59;;;17.36;84.40
54270;BME280;40181;51.560;13.000;2023-09-07T05:45:16;101439.09;;;17.37;84.21
54270;BME280;40181;51.560;13.000;2023-09-07T05:47:45;101442.66;;;17.26;85.00
54270;BME280;40181;51.560;13.000;2023-09-07T05:50:15;101424.97;;;17.25;84.92
54270;BME280;40181;51.560;13.000;2023-09-07T05:52:44;101439.13;;;17.24;85.07
54270;BME280;40181;51.560;13.000;2023-09-07T05:55:14;101436.47;;;17.21;85.67
54270;BME280;40181;51.560;13.000;2023-09-07T05:57:46;101438.25;;;17.18;85.84
54270;BME280;40181;51.560;13.000;2023-09-07T06:00:16;101431.16;;;17.24;86.03
54270;BME280;40181;51.560;13.000;2023-09-07T06:02:46;101440.91;;;17.25;86.60
54270;BME280;40181;51.560;13.000;2023-09-07T06:05:15;101440.00;;;17.12;87.15
54270;BME280;40181;51.560;13.000;2023-09-07T06:07:45;101443.53;;;17.10;86.39
54270;BME280;40181;51.560;13.000;2023-09-07T06:10:14;101453.31;;;17.16;87.25
54270;BME280;40181;51.560;13.000;2023-09-07T06:12:47;101441.78;;;17.24;87.08
54270;BME280;40181;51.560;13.000;2023-09-07T06:15:16;101443.53;;;17.02;87.38
54270;BME280;40181;51.560;13.000;2023-09-07T06:17:46;101442.66;;;17.26;87.30
54270;BME280;40181;51.560;13.000;2023-09-07T06:20:15;101447.09;;;17.18;88.45
54270;BME280;40181;51.560;13.000;2023-09-07T06:22:46;101451.53;;;17.38;87.71
54270;BME280;40181;51.560;13.000;2023-09-07T06:25:18;101454.16;;;17.46;87.67
54270;BME280;40181;51.560;13.000;2023-09-07T06:27:48;101454.19;;;17.38;87.66
54270;BME280;40181;51.560;13.000;2023-09-07T06:30:17;101460.34;;;17.37;88.09
54270;BME280;40181;51.560;13.000;2023-09-07T06:32:47;101459.47;;;17.50;88.21
54270;BME280;40181;51.560;13.000;2023-09-07T06:35:17;101455.03;;;17.59;88.26
54270;BME280;40181;51.560;13.000;2023-09-07T06:37:47;101461.22;;;17.65;88.11
54270;BME280;40181;51.560;13.000;2023-09-07T06:40:19;101451.50;;;17.46;89.89
54270;BME280;40181;51.560;13.000;2023-09-07T06:42:48;101464.78;;;17.53;89.12
54270;BME280;40181;51.560;13.000;2023-09-07T06:45:18;101457.66;;;17.71;88.31
54270;BME280;40181;51.560;13.000;2023-09-07T06:47:49;101455.03;;;17.74;88.20
54270;BME280;40181;51.560;13.000;2023-09-07T06:50:20;101458.56;;;17.75;88.32
54270;BME280;40181;51.560;13.000;2023-09-07T06:52:49;101457.66;;;17.80;87.46
54270;BME280;40181;51.560;13.000;2023-09-07T06:55:21;101465.66;;;17.79;87.74
54270;BME280;40181;51.560;13.000;2023-09-07T06:57:51;101458.47;;;17.98;87.13
54270;BME280;40181;51.560;13.000;2023-09-07T07:00:22;101454.97;;;18.07;86.81
54270;BME280;40181;51.560;13.000;2023-09-07T07:02:52;101456.69;;;18.16;87.03
54270;BME280;40181;51.560;13.000;2023-09-07T07:05:21;101451.34;;;18.25;86.12
54270;BME280;40181;51.560;13.000;2023-09-07T07:07:53;101458.41;;;18.32;86.62
54270;BME280;40181;51.560;13.000;2023-09-07T07:10:26;101450.41;;;18.37;85.48
54270;BME280;40181;51.560;13.000;2023-09-07T07:12:55;101468.09;;;18.49;84.90
54270;BME280;40181;51.560;13.000;2023-09-07T07:15:25;101459.16;;;18.59;85.10
54270;BME280;40181;51.560;13.000;2023-09-07T07:17:54;101459.97;;;18.72;84.39
54270;BME280;40181;51.560;13.000;2023-09-07T07:20:23;101455.47;;;18.79;83.67
54270;BME280;40181;51.560;13.000;2023-09-07T07:22:53;101458.03;;;18.94;83.15
54270;BME280;40181;51.560;13.000;2023-09-07T07:25:25;101466.91;;;18.97;82.65
54270;BME280;40181;51.560;13.000;2023-09-07T07:27:56;101457.09;;;19.06;81.24
54270;BME280;40181;51.560;13.000;2023-09-07T07:30:26;101459.66;;;19.17;81.48
54270;BME280;40181;51.560;13.000;2023-09-07T07:32:56;101465.00;;;19.20;81.04
54270;BME280;40181;51.560;13.000;2023-09-07T07:35:25;101463.09;;;19.32;79.76
54270;BME280;40181;51.560;13.000;2023-09-07T07:37:55;101469.25;;;19.40;78.08
54270;BME280;40181;51.560;13.000;2023-09-07T07:40:27;101464.78;;;19.45;78.11
54270;BME280;40181;51.560;13.000;2023-09-07T07:42:56;101468.19;;;19.60;77.89
54270;BME280;40181;51.560;13.000;2023-09-07T07:45:26;101469.00;;;19.68;77.95
54270;BME280;40181;51.560;13.000;2023-09-07T07:47:55;101459.94;;;19.85;76.84
54270;BME280;40181;51.560;13.000;2023-09-07T07:50:24;101454.56;;;19.89;77.10
54270;BME280;40181;51.560;13.000;2023-09-07T07:52:54;101458.00;;;20.01;75.88
54270;BME280;40181;51.560;13.000;2023-09-07T07:55:23;101469.47;;;20.08;75.50
54270;BME280;40181;51.560;13.000;2023-09-07T07:57:56;101460.63;;;20.06;75.30
54270;BME280;40181;51.560;13.000;2023-09-07T08:00:25;101459.47;;;20.25;72.08
54270;BME280;40181;51.560;13.000;2023-09-07T08:02:54;101461.94;;;20.44;72.21
54270;BME280;40181;51.560;13.000;2023-09-07T08:05:24;101458.31;;;20.48;71.46
54270;BME280;40181;51.560;13.000;2023-09-07T08:07:53;101470.75;;;20.49;71.50
54270;BME280;40181;51.560;13.000;2023-09-07T08:10:23;101457.28;;;20.60;70.48
54270;BME280;40181;51.560;13.000;2023-09-07T08:12:56;101460.56;;;20.78;69.63
54270;BME280;40181;51.560;13.000;2023-09-07T08:15:26;101467.59;;;20.86;69.01
54270;BME280;40181;51.560;13.000;2023-09-07T08:17:55;101463.94;;;20.92;68.66
54270;BME280;40181;51.560;13.000;2023-09-07T08:20:24;101451.28;;;21.05;68.97
54270;BME280;40181;51.560;13.000;2023-09-07T08:22:55;101449.41;;;21.10;69.46
54270;BME280;40181;51.560;13.000;2023-09-07T08:25:29;101457.22;;;21.23;69.20
54270;BME280;40181;51.560;13.000;2023-09-07T08:28:01;101452.59;;;21.34;67.94
54270;BME280;40181;51.560;13.000;2023-09-07T08:30:31;101443.69;;;21.32;67.78
54270;BME280;40181;51.560;13.000;2023-09-07T08:33:02;101454.09;;;21.49;67.82
54270;BME280;40181;51.560;13.000;2023-09-07T08:35:32;101450.34;;;21.61;66.36
54270;BME280;40181;51.560;13.000;2023-09-07T08:38:09;101450.25;;;21.64;65.64
54270;BME280;40181;51.560;13.000;2023-09-07T08:40:39;101449.34;;;21.65;65.61
54270;BME280;40181;51.560;13.000;2023-09-07T08:43:11;101451.63;;;21.89;66.09
54270;BME280;40181;51.560;13.000;2023-09-07T08:45:46;101445.22;;;21.96;66.14
54270;BME280;40181;51.560;13.000;2023-09-07T08:48:23;101434.44;;;22.01;65.51
54270;BME280;40181;51.560;13.000;2023-09-07T08:50:56;101442.19;;;22.15;66.04
54270;BME280;40181;51.560;13.000;2023-09-07T08:53:27;101436.72;;;22.21;64.64
54270;BME280;40181;51.560;13.000;2023-09-07T08:55:57;101440.84;;;22.36;67.02
54270;BME280;40181;51.560;13.000;2023-09-07T08:58:29;101441.66;;;22.39;64.00
54270;BME280;40181;51.560;13.000;2023-09-07T09:00:59;101438.66;;;22.55;62.34
54270;BME280;40181;51.560;13.000;2023-09-07T09:03:28;101445.72;;;22.59;64.59
54270;BME280;40181;51.560;13.000;2023-09-07T09:05:59;101446.69;;;22.55;63.71
54270;BME280;40181;51.560;13.000;2023-09-07T09:08:29;101437.28;;;22.76;63.33
54270;BME280;40181;51.560;13.000;2023-09-07T09:10:59;101445.13;;;22.84;63.30
54270;BME280;40181;51.560;13.000;2023-09-07T09:13:33;101445.63;;;23.00;61.53
54270;BME280;40181;51.560;13.000;2023-09-07T09:16:03;101439.00;;;23.15;61.83
54270;BME280;40181;51.560;13.000;2023-09-07T09:18:32;101446.97;;;23.18;61.08
54270;BME280;40181;51.560;13.000;2023-09-07T09:21:01;101447.41;;;23.38;61.47
54270;BME280;40181;51.560;13.000;2023-09-07T09:23:32;101440.69;;;23.56;63.30
54270;BME280;40181;51.560;13.000;2023-09-07T09:26:03;101436.72;;;23.71;58.37
54270;BME280;40181;51.560;13.000;2023-09-07T09:28:35;101440.91;;;23.80;58.43
54270;BME280;40181;51.560;13.000;2023-09-07T09:31:04;101439.00;;;23.85;58.77
54270;BME280;40181;51.560;13.000;2023-09-07T09:33:38;101435.34;;;23.87;58.32
54270;BME280;40181;51.560;13.000;2023-09-07T09:36:08;101423.75;;;23.85;58.46
54270;BME280;40181;51.560;13.000;2023-09-07T09:38:37;101421.22;;;24.12;60.33
54270;BME280;40181;51.560;13.000;2023-09-07T09:41:09;101430.44;;;24.34;57.36
54270;BME280;40181;51.560;13.000;2023-09-07T09:43:41;101426.38;;;24.50;56.49
54270;BME280;40181;51.560;13.000;2023-09-07T09:46:12;101425.41;;;24.53;57.66
54270;BME280;40181;51.560;13.000;2023-09-07T09:48:42;101422.81;;;24.78;55.62
54270;BME280;40181;51.560;13.000;2023-09-07T09:51:13;101422.59;;;24.86;54.06
54270;BME280;40181;51.560;13.000;2023-09-07T09:53:44;101417.09;;;24.89;54.97
54270;BME280;40181;51.560;13.000;2023-09-07T09:56:14;101414.22;;;24.95;56.60
54270;BME280;40181;51.560;13.000;2023-09-07T09:58:48;101415.38;;;25.13;55.85
54270;BME280;40181;51.560;13.000;2023-09-07T10:01:18;101401.41;;;25.29;54.12
54270;BME280;40181;51.560;13.000;2023-09-07T10:03:49;101411.41;;;25.25;55.46
54270;BME280;40181;51.560;13.000;2023-09-07T10:06:22;101407.81;;;25.52;52.37
54270;BME280;40181;51.560;13.000;2023-09-07T10:08:54;101410.28;;;25.58;51.24
54270;BME280;40181;51.560;13.000;2023-09-07T10:11:29;101403.75;;;25.65;51.85
54270;BME280;40181;51.560;13.000;2023-09-07T10:14:03;101393.16;;;25.61;50.37
54270;BME280;40181;51.560;13.000;2023-09-07T10:16:42;101400.41;;;25.82;48.98
54270;BME280;40181;51.560;13.000;2023-09-07T10:19:16;101402.94;;;25.87;50.05
54270;BME280;40181;51.560;13.000;2023-09-07T10:21:46;101405.88;;;26.05;49.83
54270;BME280;40181;51.560;13.000;2023-09-07T10:24:26;101401.25;;;26.08;50.21
54270;BME280;40181;51.560;13.000;2023-09-07T10:26:57;101398.31;;;26.15;48.22
54270;BME280;40181;51.560;13.000;2023-09-07T10:29:40;101391.81;;;26.44;48.06
54270;BME280;40181;51.560;13.000;2023-09-07T10:32:10;101390.88;;;26.45;47.49
54270;BME280;40181;51.560;13.000;2023-09-07T10:34:42;101386.91;;;26.54;49.06
54270;BME280;40181;51.560;13.000;2023-09-07T10:37:12;101385.78;;;26.60;49.42
54270;BME280;40181;51.560;13.000;2023-09-07T10:39:44;101390.81;;;26.91;47.47
54270;BME280;40181;51.560;13.000;2023-09-07T10:42:23;101383.03;;;27.06;46.09
54270;BME280;40181;51.560;13.000;2023-09-07T10:44:55;101389.44;;;27.24;47.28
54270;BME280;40181;51.560;13.000;2023-09-07T10:47:24;101387.69;;;27.44;46.20
54270;BME280;40181;51.560;13.000;2023-09-07T10:49:53;101381.75;;;27.36;44.49
54270;BME280;40181;51.560;13.000;2023-09-07T10:52:24;101378.22;;;27.54;43.89
54270;BME280;40181;51.560;13.000;2023-09-07T10:54:57;101374.41;;;27.60;45.02
54270;BME280;40181;51.560;13.000;2023-09-07T10:57:26;101367.50;;;27.73;44.40
54270;BME280;40181;51.560;13.000;2023-09-07T10:59:58;101375.75;;;27.89;44.96
54270;BME280;40181;51.560;13.000;2023-09-07T11:02:29;101369.91;;;27.99;41.83
54270;BME280;40181;51.560;13.000;2023-09-07T11:04:59;101370.56;;;28.04;40.77
54270;BME280;40181;51.560;13.000;2023-09-07T11:07:29;101366.69;;;27.91;41.02
54270;BME280;40181;51.560;13.000;2023-09-07T11:09:58;101367.09;;;28.21;42.42
54270;BME280;40181;51.560;13.000;2023-09-07T11:12:29;101369.84;;;28.39;41.66
54270;BME280;40181;51.560;13.000;2023-09-07T11:15:08;101372.41;;;28.23;39.73
54270;BME280;40181;51.560;13.000;2023-09-07T11:17:39;101369.53;;;28.45;39.48
54270;BME280;40181;51.560;13.000;2023-09-07T11:20:10;101366.69;;;28.48;39.74
54270;BME280;40181;51.560;13.000;2023-09-07T11:22:39;101357.50;;;28.70;39.78
54270;BME280;40181;51.560;13.000;2023-09-07T11:25:09;101357.84;;;28.64;40.23
54270;BME280;40181;51.560;13.000;2023-09-07T11:27:39;101365.81;;;28.84;40.21
54270;BME280;40181;51.560;13.000;2023-09-07T11:30:13;101354.53;;;28.94;40.79
54270;BME280;40181;51.560;13.000;2023-09-07T11:32:42;101351.03;;;29.09;41.29
54270;BME280;40181;51.560;13.000;2023-09-07T11:35:11;101349.41;;;29.23;39.20
54270;BME280;40181;51.560;13.000;2023-09-07T11:37:41;101342.47;;;29.35;39.54
54270;BME280;40181;51.560;13.000;2023-09-07T11:40:11;101351.91;;;29.10;39.30
54270;BME280;40181;51.560;13.000;2023-09-07T11:42:41;101345.44;;;29.48;41.53
54270;BME280;40181;51.560;13.000;2023-09-07T11:45:13;101349.34;;;29.24;37.76
54270;BME280;40181;51.560;13.000;2023-09-07T11:47:43;101340.03;;;29.64;39.74
54270;BME280;40181;51.560;13.000;2023-09-07T11:50:13;101342.56;;;29.51;36.54
54270;BME280;40181;51.560;13.000;2023-09-07T11:52:44;101347.56;;;29.59;38.40
54270;BME280;40181;51.560;13.000;2023-09-07T11:55:14;101340.63;;;29.53;35.87
54270;BME280;40181;51.560;13.000;2023-09-07T11:57:44;101340.50;;;29.38;36.02
54270;BME280;40181;51.560;13.000;2023-09-07T12:00:18;101339.28;;;29.78;37.33
54270;BME280;40181;51.560;13.000;2023-09-07T12:02:47;101337.47;;;29.94;36.63
54270;BME280;40181;51.560;13.000;2023-09-07T12:05:17;101336.44;;;29.81;35.56
54270;BME280;40181;51.560;13.000;2023-09-07T12:07:46;101341.28;;;30.08;36.28
54270;BME280;40181;51.560;13.000;2023-09-07T12:10:15;101334.13;;;29.89;33.66
54270;BME280;40181;51.560;13.000;2023-09-07T12:12:45;101324.00;;;29.93;33.86
54270;BME280;40181;51.560;13.000;2023-09-07T12:15:17;101325.69;;;30.12;36.92
54270;BME280;40181;51.560;13.000;2023-09-07T12:17:46;101330.66;;;29.87;34.02
54270;BME280;40181;51.560;13.000;2023-09-07T12:20:19;101332.19;;;30.09;34.16
54270;BME280;40181;51.560;13.000;2023-09-07T12:22:49;101323.41;;;30.36;36.18
54270;BME280;40181;51.560;13.000;2023-09-07T12:25:18;101316.66;;;30.43;35.89
54270;BME280;40181;51.560;13.000;2023-09-07T12:27:47;101327.53;;;29.95;34.35
54270;BME280;40181;51.560;13.000;2023-09-07T12:30:21;101315.03;;;29.92;34.30
54270;BME280;40181;51.560;13.000;2023-09-07T12:32:52;101321.84;;;30.00;34.35
54270;BME280;40181;51.560;13.000;2023-09-07T12:35:21;101296.75;;;29.96;34.12
54270;BME280;40181;51.560;13.000;2023-09-07T12:37:50;101311.53;;;29.90;33.96
54270;BME280;40181;51.560;13.000;2023-09-07T12:40:20;101309.88;;;29.88;34.86
54270;BME280;40181;51.560;13.000;2023-09-07T12:42:49;101307.09;;;30.05;33.73
54270;BME280;40181;51.560;13.000;2023-09-07T12:45:21;101301.59;;;30.23;35.25
54270;BME280;40181;51.560;13.000;2023-09-07T12:47:50;101311.56;;;30.53;33.47
54270;BME280;40181;51.560;13.000;2023-09-07T12:50:20;101298.25;;;30.18;33.48
54270;BME280;40181;51.560;13.000;2023-09-07T12:52:49;101291.41;;;30.43;32.54
54270;BME280;40181;51.560;13.000;2023-09-07T12:55:19;101304.34;;;29.89;32.20
54270;BME280;40181;51.560;13.000;2023-09-07T12:57:50;101299.91;;;30.20;32.46